createdAt,value
2022-11-22T00:04:18.426Z,63.91
2022-11-22T00:09:20.234Z,63.79
2022-11-22T00:14:22.065Z,63.60
2022-11-22T00:19:24.073Z,63.14
2022-11-22T00:24:25.885Z,63.75
2022-11-22T00:29:27.977Z,63.32
2022-11-22T00:34:29.986Z,63.00
2022-11-22T00:39:32.581Z,63.18
2022-11-22T00:44:34.612Z,63.15
2022-11-22T00:49:36.419Z,63.66
2022-11-22T00:54:38.298Z,63.85
2022-11-22T00:59:40.078Z,64.02
2022-11-22T01:04:41.885Z,63.59
2022-11-22T01:09:43.673Z,64.02
2022-11-22T01:14:45.475Z,63.67
2022-11-22T01:19:47.355Z,63.60
2022-11-22T01:24:49.171Z,62.97
2022-11-22T01:29:50.996Z,62.83
2022-11-22T01:34:52.819Z,63.15
2022-11-22T01:39:54.811Z,63.30
2022-11-22T01:45:38.143Z,63.09
2022-11-22T01:50:43.967Z,62.73
2022-11-22T01:55:46.449Z,63.29
2022-11-22T02:00:50.332Z,63.08
2022-11-22T02:05:53.446Z,62.94
2022-11-22T02:10:56.647Z,62.59
2022-11-22T02:15:59.260Z,63.05
2022-11-22T02:21:02.240Z,62.94
2022-11-22T02:26:04.418Z,62.95
2022-11-22T02:31:06.416Z,62.61
2022-11-22T02:36:11.409Z,62.90
2022-11-22T02:41:13.184Z,63.10
2022-11-22T02:46:20.801Z,63.00
2022-11-22T02:51:22.717Z,62.97
2022-11-22T02:56:24.611Z,63.05
2022-11-22T03:01:26.506Z,63.25
2022-11-22T03:06:28.558Z,62.88
2022-11-22T03:11:30.309Z,62.99
2022-11-22T03:16:32.109Z,62.99
2022-11-22T03:21:33.889Z,63.09
2022-11-22T03:26:36.386Z,63.20
2022-11-22T03:31:38.164Z,63.40
2022-11-22T03:36:40.056Z,63.40
2022-11-22T03:41:41.904Z,63.12
2022-11-22T03:46:43.694Z,63.11
2022-11-22T03:51:45.520Z,63.29
2022-11-22T03:56:47.287Z,63.12
2022-11-22T04:01:49.278Z,63.33
2022-11-22T04:06:51.231Z,63.39
2022-11-22T04:11:53.011Z,63.51
2022-11-22T04:16:54.818Z,62.82
2022-11-22T04:21:56.632Z,63.05
2022-11-22T04:26:58.504Z,63.72
2022-11-22T04:32:18.936Z,63.66
2022-11-22T04:37:20.754Z,64.19
2022-11-22T04:42:58.522Z,64.38
2022-11-22T04:48:00.380Z,64.53
2022-11-22T04:53:02.213Z,64.07
2022-11-22T04:58:04.053Z,64.12
2022-11-22T05:03:07.197Z,64.17
2022-11-22T05:08:09.907Z,63.64
2022-11-22T05:13:11.720Z,63.83
2022-11-22T05:18:14.223Z,63.96
2022-11-22T05:23:35.415Z,64.19
2022-11-22T05:28:38.555Z,64.23
2022-11-22T05:33:43.064Z,63.81
2022-11-22T05:38:44.882Z,64.47
2022-11-22T05:43:47.082Z,64.10
2022-11-22T05:48:48.994Z,63.76
2022-11-22T05:53:50.966Z,64.17
2022-11-22T05:58:53.690Z,63.90
2022-11-22T06:03:55.564Z,63.40
2022-11-22T06:08:59.473Z,63.56
2022-11-22T06:14:03.542Z,63.82
2022-11-22T06:19:05.384Z,63.32
2022-11-22T06:24:07.941Z,64.12
2022-11-22T06:29:09.840Z,64.05
2022-11-22T06:34:13.169Z,63.03
2022-11-22T06:39:14.998Z,63.01
2022-11-22T06:44:16.987Z,63.50
2022-11-22T06:49:18.853Z,62.92
2022-11-22T06:54:20.662Z,63.75
2022-11-22T06:59:22.507Z,62.93
2022-11-22T07:04:24.346Z,63.30
2022-11-22T07:09:26.245Z,63.83
2022-11-22T07:14:28.039Z,63.46
2022-11-22T07:19:30.181Z,63.83
2022-11-22T07:24:32.258Z,63.48
2022-11-22T07:29:34.061Z,63.34
2022-11-22T07:34:35.892Z,62.63
2022-11-22T07:39:37.685Z,63.02
2022-11-22T07:44:39.563Z,63.15
2022-11-22T07:49:41.472Z,63.35
2022-11-22T07:54:43.306Z,63.30
2022-11-22T07:59:45.198Z,62.76
2022-11-22T08:04:46.995Z,62.96
2022-11-22T08:09:48.814Z,63.41
2022-11-22T08:14:50.689Z,63.45
2022-11-22T08:19:53.630Z,63.26
2022-11-22T08:24:55.863Z,63.10
2022-11-22T08:29:57.919Z,63.03
2022-11-22T08:34:59.769Z,62.73
2022-11-22T08:40:02.150Z,62.28
2022-11-22T08:45:05.771Z,62.69
2022-11-22T08:50:08.283Z,62.49
2022-11-22T08:55:10.178Z,62.89
2022-11-22T09:00:12.538Z,62.69
2022-11-22T09:05:14.485Z,62.63
2022-11-22T09:10:16.402Z,62.08
2022-11-22T09:15:18.466Z,62.30
2022-11-22T09:20:20.265Z,62.35
2022-11-22T09:25:22.493Z,61.92
2022-11-22T09:30:24.349Z,62.35
2022-11-22T09:35:26.247Z,62.31
2022-11-22T09:40:29.468Z,61.81
2022-11-22T09:46:08.863Z,61.80
2022-11-22T09:51:24.224Z,61.68
2022-11-22T09:56:28.264Z,61.48
2022-11-22T10:01:48.165Z,61.03
2022-11-22T10:06:55.898Z,60.73
2022-11-22T10:12:16.167Z,60.53
2022-11-22T10:17:18.669Z,60.62
2022-11-22T10:22:21.526Z,60.28
2022-11-22T10:27:31.761Z,60.35
2022-11-22T10:33:10.990Z,59.87
2022-11-22T10:38:22.134Z,60.23
2022-11-22T10:43:53.147Z,59.79
2022-11-22T10:49:17.428Z,59.84
2022-11-22T10:54:27.980Z,59.58
2022-11-22T10:59:58.095Z,59.37
2022-11-22T11:05:07.361Z,59.34
2022-11-22T11:10:29.202Z,59.48
2022-11-22T11:15:44.547Z,59.32
2022-11-22T11:20:49.860Z,58.99
2022-11-22T11:25:52.863Z,58.86
2022-11-22T11:31:10.891Z,58.96
2022-11-22T11:36:22.381Z,58.38
2022-11-22T11:41:40.296Z,58.86
2022-11-22T11:46:49.480Z,58.33
2022-11-22T11:52:16.583Z,58.47
2022-11-22T11:57:34.402Z,58.99
2022-11-22T12:02:41.258Z,58.25
2022-11-22T12:07:46.856Z,58.69
2022-11-22T12:13:04.645Z,58.68
2022-11-22T12:18:32.424Z,58.83
2022-11-22T12:24:13.233Z,58.80
2022-11-22T12:29:18.433Z,58.62
2022-11-22T12:34:47.348Z,58.81
2022-11-22T12:39:52.201Z,58.77
2022-11-22T12:45:04.625Z,58.79
2022-11-22T12:50:17.182Z,58.48
2022-11-22T12:55:27.017Z,58.66
2022-11-22T13:00:35.344Z,58.48
2022-11-22T13:05:43.715Z,58.75
2022-11-22T13:10:51.635Z,58.49
2022-11-22T13:15:57.326Z,58.44
2022-11-22T13:21:11.363Z,58.84
2022-11-22T13:26:22.959Z,58.86
2022-11-22T13:31:25.108Z,59.06
2022-11-22T13:36:29.943Z,58.95
2022-11-22T13:41:34.569Z,58.96
2022-11-22T13:46:58.271Z,58.87
2022-11-22T13:52:05.207Z,58.89
2022-11-22T13:57:25.620Z,58.52
2022-11-22T14:02:27.521Z,58.84
2022-11-22T14:07:37.482Z,58.66
2022-11-22T14:12:54.354Z,58.91
2022-11-22T14:18:13.198Z,58.90
2022-11-22T14:23:39.352Z,59.16
2022-11-22T14:29:18.875Z,58.76
2022-11-22T14:34:23.017Z,58.91
2022-11-22T14:39:37.252Z,58.64
2022-11-22T14:44:40.476Z,58.59
2022-11-22T14:49:46.432Z,58.72
2022-11-22T14:54:52.475Z,58.48
2022-11-22T15:00:02.922Z,58.56
2022-11-22T15:09:23.700Z,58.56
2022-11-22T15:11:38.872Z,58.82
2022-11-22T16:00:27.168Z,58.60
2022-11-22T16:06:09.035Z,58.43
2022-11-22T16:10:56.848Z,58.83
2022-11-22T16:16:19.989Z,58.77
2022-11-22T16:21:29.380Z,58.78
2022-11-22T16:26:31.269Z,58.65
2022-11-22T16:31:33.353Z,58.59
2022-11-22T16:36:35.141Z,58.66
2022-11-22T16:41:37.085Z,58.37
2022-11-22T16:46:40.662Z,58.64
2022-11-22T16:51:44.828Z,59.06
2022-11-22T16:56:46.948Z,58.92
2022-11-22T17:01:49.495Z,58.94
2022-11-22T17:06:52.328Z,59.22
2022-11-22T17:11:55.102Z,58.98
2022-11-22T17:16:56.941Z,58.96
2022-11-22T17:21:58.951Z,58.88
2022-11-22T17:27:00.826Z,59.00
2022-11-22T17:32:02.763Z,58.91
2022-11-22T17:37:04.728Z,58.85
2022-11-22T17:42:06.972Z,58.46
2022-11-22T17:47:09.018Z,58.56
2022-11-22T17:52:10.967Z,59.00
2022-11-22T17:57:13.576Z,59.10
2022-11-22T18:02:15.951Z,59.00
2022-11-22T18:07:17.862Z,59.29
2022-11-22T18:12:20.068Z,59.38
2022-11-22T18:17:21.908Z,58.97
2022-11-22T18:22:23.716Z,58.66
2022-11-22T18:27:25.514Z,58.53
2022-11-22T18:32:27.940Z,58.60
2022-11-22T18:37:29.759Z,59.04
2022-11-22T18:42:32.365Z,58.45
2022-11-22T18:47:34.586Z,58.86
2022-11-22T18:52:38.312Z,58.74
2022-11-22T18:57:40.145Z,58.73
2022-11-22T19:02:41.960Z,58.80
2022-11-22T19:07:43.823Z,58.76
2022-11-22T19:12:45.851Z,59.09
2022-11-22T19:17:47.673Z,58.88
2022-11-22T19:22:50.254Z,59.18
2022-11-22T19:27:52.067Z,58.83
2022-11-22T19:32:56.129Z,58.96
2022-11-22T19:37:57.943Z,59.00
2022-11-22T19:42:59.779Z,58.71
2022-11-22T19:48:01.585Z,58.88
2022-11-22T19:53:03.663Z,58.44
2022-11-22T19:58:06.612Z,58.65
2022-11-22T20:03:12.760Z,58.30
2022-11-22T20:08:14.563Z,58.38
2022-11-22T20:13:16.586Z,58.58
2022-11-22T20:18:18.413Z,58.24
2022-11-22T20:23:20.222Z,58.70
2022-11-22T20:28:22.025Z,58.36
2022-11-22T20:33:23.872Z,58.41
2022-11-22T20:38:25.757Z,58.29
2022-11-22T20:43:28.416Z,58.16
2022-11-22T20:48:31.738Z,58.25
2022-11-22T20:53:34.033Z,58.53
2022-11-22T20:58:36.136Z,58.41
2022-11-22T21:03:38.058Z,58.62
2022-11-22T21:08:40.293Z,58.12
2022-11-22T21:13:42.925Z,58.52
2022-11-22T21:18:44.817Z,58.21
2022-11-22T21:23:46.601Z,58.40
2022-11-22T21:28:49.083Z,58.53
2022-11-22T21:33:51.609Z,58.16
2022-11-22T21:38:53.457Z,58.11
2022-11-22T21:43:56.176Z,58.15
2022-11-22T21:48:58.052Z,57.75
2022-11-22T21:54:01.493Z,58.07
2022-11-22T21:59:03.419Z,58.32
2022-11-22T22:04:05.564Z,57.93
2022-11-22T22:09:07.430Z,57.97
2022-11-22T22:14:09.878Z,58.12
2022-11-22T22:19:11.730Z,57.90
2022-11-22T22:24:13.875Z,58.36
2022-11-22T22:29:15.741Z,58.08
2022-11-22T22:34:18.380Z,58.50
2022-11-22T22:39:20.250Z,57.78
2022-11-22T22:44:22.273Z,57.99
2022-11-22T22:49:24.064Z,57.72
2022-11-22T22:54:25.887Z,58.21
2022-11-22T22:59:27.782Z,57.64
2022-11-22T23:04:29.710Z,57.96
2022-11-22T23:09:32.319Z,58.24
2022-11-22T23:14:34.465Z,58.08
2022-11-22T23:19:36.397Z,58.15
2022-11-22T23:24:38.315Z,58.41
2022-11-22T23:29:40.248Z,57.90
2022-11-22T23:34:42.214Z,57.97
2022-11-22T23:39:44.121Z,57.84
2022-11-22T23:44:46.095Z,58.03
2022-11-22T23:49:48.426Z,57.71
2022-11-22T23:54:50.404Z,58.00
2022-11-22T23:59:52.291Z,57.93
